Cotes De Bretagne — FW3973 — position and weather

sailwx.info

Track history (hours):
 
Tides and Currents Weather Stations Pressure Air Temp Water Temp Dewpoint Dewpoint Depression Visibility Wind Speed Wind Dir Waves Ship Positions

Cotes De Bretagne

Last reported at 2015-May-25 12:33 UTC. Time now 2015-May-25 13:33 UTC.
Position N 47°44' W 003°21'.

Length 75 m; draft 4.2 m.

Type: Dredging. MMSI: 227003850.

Date/timePositionNaut miles runAvg speedWind from/ knotsBaromVisibWave heightAir tempDewpointWater temp
2015-May-25 12:33N 47°44' W 003°21'0 0.0
2015-May-25 11:33N 47°44' W 003°21'0 0.0
2015-May-25 10:33N 47°44' W 003°21'0 0.0
2015-May-25 09:33N 47°44' W 003°21'0 0.0
2015-May-25 08:33N 47°44' W 003°21'0 0.0
2015-May-25 07:33N 47°44' W 003°21'0 0.0
2015-May-25 06:33N 47°44' W 003°21'0 0.0
2015-May-25 05:33N 47°44' W 003°21'0 0.0
2015-May-25 04:33N 47°44' W 003°21'0 0.0
2015-May-25 03:33N 47°44' W 003°21'0 0.0
2015-May-25 02:33N 47°44' W 003°21'0 0.0
2015-May-25 01:33N 47°44' W 003°21'0 0.0
2015-May-25 00:33N 47°44' W 003°21'0 0.0
2015-May-24 23:33N 47°44' W 003°21'0 0.0
2015-May-24 22:33N 47°44' W 003°21'0 0.0
2015-May-24 21:33N 47°44' W 003°21'0 0.0
2015-May-24 20:33N 47°44' W 003°21'0 0.0
2015-May-24 19:33N 47°44' W 003°21'0 0.0
2015-May-24 18:33N 47°44' W 003°21'0 0.0
2015-May-24 17:33N 47°44' W 003°21'0 0.0
2015-May-24 16:33N 47°44' W 003°21'0 0.0
2015-May-24 15:33N 47°44' W 003°21'0 0.0
2015-May-24 14:33N 47°44' W 003°21'0 0.0
2015-May-24 13:33N 47°44' W 003°21'0 0.0
2015-May-24 12:33N 47°44' W 003°21'0 0.0
2015-May-24 11:33N 47°44' W 003°21'0 0.0
2015-May-24 10:33N 47°44' W 003°21'0 0.0
2015-May-24 09:34N 47°44' W 003°21'0 0.0
2015-May-24 08:34N 47°44' W 003°21'0 0.0
2015-May-24 07:34N 47°44' W 003°21'0 0.0
2015-May-24 06:34N 47°44' W 003°21'0 0.0
2015-May-24 05:34N 47°44' W 003°21'0 0.0
2015-May-24 04:34N 47°44' W 003°21'0 0.0
2015-May-24 03:34N 47°44' W 003°21'0 0.0
2015-May-24 02:33N 47°44' W 003°21'0 0.0
2015-May-24 01:34N 47°44' W 003°21'0 0.0
2015-May-24 00:34N 47°44' W 003°21'0 0.0
2015-May-23 23:34N 47°44' W 003°21'0 0.0
2015-May-23 22:34N 47°44' W 003°21'0 0.0
2015-May-23 21:34N 47°44' W 003°21'0 0.0
2015-May-23 20:34N 47°44' W 003°21'0 0.0
2015-May-23 19:34N 47°44' W 003°21'1 1.5
2015-May-23 18:33N 47°45' W 003°19'0 0.0
2015-May-23 17:33N 47°45' W 003°19'0 0.0
2015-May-23 16:34N 47°45' W 003°19'2 1.6
2015-May-23 15:34N 47°44' W 003°21'4 4.5
2015-May-23 14:33N 47°40' W 003°24'0 0.0
2015-May-23 13:34N 47°40' W 003°24'6 6.2
2015-May-23 12:34N 47°35' W 003°18'7 6.9
2015-May-23 11:33N 47°29' W 003°13'7 7.1
2015-May-23 10:34N 47°24' W 003°06'7 6.7
2015-May-23 09:34N 47°19' W 002°60'7 7.2
2015-May-23 08:32N 47°13' W 002°53'8 7.4
2015-May-23 07:26N 47°07' W 002°45'35 7.2
2015-May-23 02:30N 46°41' W 002°11'7 7.2
2015-May-23 01:32N 46°35' W 002°05'7 7.2
2015-May-23 00:33N 46°29' W 002°00'7 7.2
2015-May-22 23:34N 46°25' W 001°51'5 4.8
2015-May-22 22:33N 46°22' W 001°45'0 0.1
2015-May-22 21:34N 46°22' W 001°45'0 0.2
2015-May-22 20:34N 46°22' W 001°45'0 0.4
2015-May-22 19:33N 46°22' W 001°45'1010.4
2015-May-22 18:33N 46°28' W 001°58'1111.2
2015-May-22 17:33N 46°37' W 002°07'5811.0
2015-May-22 12:17N 47°21' W 003°03'1110.1
2015-May-22 11:15N 47°26' W 003°17'710.6
2015-May-22 10:33N 47°30' W 003°26'1111.0
2015-May-22 09:33N 47°37' W 003°38'28 3.1
2015-May-22 00:33N 47°58' W 004°06'0 0.0
2015-May-21 23:33N 47°58' W 004°06'25 2.5
2015-May-21 13:33N 47°40' W 003°42'9 8.9
2015-May-21 12:33N 47°34' W 003°31'9 9.4
2015-May-21 11:33N 47°28' W 003°21'1210.1
2015-May-21 10:22N 47°22' W 003°05'1 0.1
2015-May-20 23:33N 47°22' W 003°05'13 9.9
2015-May-20 22:16N 47°28' W 003°21'710.3
2015-May-20 21:33N 47°33' W 003°29'1111.1
2015-May-20 20:33N 47°40' W 003°42'1111.0
2015-May-20 19:33N 47°46' W 003°56'1010.2
2015-May-20 18:33N 47°53' W 004°07'6 5.7
2015-May-20 17:33N 47°58' W 004°06'8 2.7
2015-May-20 14:33N 47°50' W 004°06'9 8.7
2015-May-20 13:33N 47°46' W 003°55'10 9.0
2015-May-20 12:28N 47°40' W 003°43'8 8.4
2015-May-20 11:31N 47°35' W 003°34'8 8.3
2015-May-20 10:33N 47°30' W 003°24'14 9.4
2015-May-20 09:04N 47°23' W 003°07'6 0.6
2015-May-19 22:32N 47°20' W 002°59'1210.5
2015-May-19 21:23N 47°26' W 003°15'910.6
2015-May-19 20:33N 47°31' W 003°25'1111.2
2015-May-19 19:33N 47°38' W 003°38'1111.2
2015-May-19 18:33N 47°45' W 003°51'1111.0
2015-May-19 17:33N 47°50' W 004°06'8 1.6
2015-May-19 12:33N 47°58' W 004°06'0 0.0
2015-May-19 02:33N 47°58' W 004°06'0 0.0
2015-May-18 15:33N 47°58' W 004°06'27 6.8
2015-May-18 11:33N 47°38' W 003°39'8 7.8
2015-May-18 10:34N 47°34' W 003°30'8 8.1
2015-May-18 09:33N 47°28' W 003°21'38 9.4
2015-May-18 05:29N 47°09' W 002°32'9 3.7
2015-May-18 03:04N 47°05' W 002°20'0 0.8
2015-May-18 02:32N 47°05' W 002°21'0 0.1
2015-May-18 01:32N 47°05' W 002°21'1 0.8
2015-May-18 00:28N 47°05' W 002°22'1010.8
2015-May-17 23:33N 47°10' W 002°35'2110.6
2015-May-17 21:32N 47°21' W 003°02'1410.0
2015-May-17 20:10N 47°27' W 003°19'610.4
2015-May-17 19:33N 47°31' W 003°27'1110.7
2015-May-17 18:33N 47°38' W 003°39'2210.9
2015-May-17 16:33N 47°50' W 004°06'6 1.9
2015-May-17 13:33N 47°56' W 004°07'22 6.9
2015-May-17 10:19N 47°41' W 003°43'7 9.2
2015-May-17 09:33N 47°36' W 003°35'9 9.2
2015-May-17 08:33N 47°30' W 003°24'42 9.8
2015-May-17 04:16N 47°09' W 002°31'7 9.3
2015-May-17 03:31N 47°05' W 002°22'1 1.1
2015-May-17 02:33N 47°05' W 002°20'0 0.1
2015-May-17 01:29N 47°05' W 002°20'0 0.2
2015-May-17 00:27N 47°05' W 002°21'35 8.9
2015-May-16 20:31N 47°22' W 003°06'1010.3
2015-May-16 19:32N 47°27' W 003°18'1110.8
2015-May-16 18:33N 47°34' W 003°31'1111.0
2015-May-16 17:33N 47°41' W 003°44'1111.0
2015-May-16 16:33N 47°47' W 003°57'8 2.1
2015-May-16 12:33N 47°52' W 004°07'20 9.1
2015-May-16 10:24N 47°41' W 003°43'8 9.0
2015-May-16 09:33N 47°36' W 003°35'9 8.7
2015-May-16 08:33N 47°31' W 003°24'9 8.9
2015-May-16 07:32N 47°25' W 003°13'37 9.1
2015-May-16 03:31N 47°07' W 002°27'5 1.6
2015-May-16 00:30N 47°05' W 002°21'0 0.2
2015-May-15 23:28N 47°05' W 002°20'10 9.0
2015-May-15 22:24N 47°09' W 002°33'2210.8
2015-May-15 20:25N 47°20' W 003°00'1110.2
2015-May-15 19:18N 47°26' W 003°15'810.2
2015-May-15 18:33N 47°30' W 003°24'1010.6
2015-May-15 17:33N 47°37' W 003°36'28 9.4
2015-May-15 14:33N 47°56' W 004°07'  
Track history (hours):
 
Tides and Currents Weather Stations Pressure Air Temp Water Temp Dewpoint Dewpoint Depression Visibility Wind Speed Wind Dir Waves Ship Positions

Cotes De Bretagne

Last reported at 2015-May-25 12:33 UTC. Time now 2015-May-25 13:33 UTC.
Position N 47°44' W 003°21'.

Length 75 m; draft 4.2 m.

Type: Dredging. MMSI: 227003850.

Date/timePositionNaut miles runAvg speedWind from/ knotsBaromVisibWave heightAir tempDewpointWater temp
2015-May-25 12:33N 47°44' W 003°21'0 0.0
2015-May-25 11:33N 47°44' W 003°21'0 0.0
2015-May-25 10:33N 47°44' W 003°21'0 0.0
2015-May-25 09:33N 47°44' W 003°21'0 0.0
2015-May-25 08:33N 47°44' W 003°21'0 0.0
2015-May-25 07:33N 47°44' W 003°21'0 0.0
2015-May-25 06:33N 47°44' W 003°21'0 0.0
2015-May-25 05:33N 47°44' W 003°21'0 0.0
2015-May-25 04:33N 47°44' W 003°21'0 0.0
2015-May-25 03:33N 47°44' W 003°21'0 0.0
2015-May-25 02:33N 47°44' W 003°21'0 0.0
2015-May-25 01:33N 47°44' W 003°21'0 0.0
2015-May-25 00:33N 47°44' W 003°21'0 0.0
2015-May-24 23:33N 47°44' W 003°21'0 0.0
2015-May-24 22:33N 47°44' W 003°21'0 0.0
2015-May-24 21:33N 47°44' W 003°21'0 0.0
2015-May-24 20:33N 47°44' W 003°21'0 0.0
2015-May-24 19:33N 47°44' W 003°21'0 0.0
2015-May-24 18:33N 47°44' W 003°21'0 0.0
2015-May-24 17:33N 47°44' W 003°21'0 0.0
2015-May-24 16:33N 47°44' W 003°21'0 0.0
2015-May-24 15:33N 47°44' W 003°21'0 0.0
2015-May-24 14:33N 47°44' W 003°21'0 0.0
2015-May-24 13:33N 47°44' W 003°21'0 0.0
2015-May-24 12:33N 47°44' W 003°21'0 0.0
2015-May-24 11:33N 47°44' W 003°21'0 0.0
2015-May-24 10:33N 47°44' W 003°21'0 0.0
2015-May-24 09:34N 47°44' W 003°21'0 0.0
2015-May-24 08:34N 47°44' W 003°21'0 0.0
2015-May-24 07:34N 47°44' W 003°21'0 0.0
2015-May-24 06:34N 47°44' W 003°21'0 0.0
2015-May-24 05:34N 47°44' W 003°21'0 0.0
2015-May-24 04:34N 47°44' W 003°21'0 0.0
2015-May-24 03:34N 47°44' W 003°21'0 0.0
2015-May-24 02:33N 47°44' W 003°21'0 0.0
2015-May-24 01:34N 47°44' W 003°21'0 0.0
2015-May-24 00:34N 47°44' W 003°21'0 0.0
2015-May-23 23:34N 47°44' W 003°21'0 0.0
2015-May-23 22:34N 47°44' W 003°21'0 0.0
2015-May-23 21:34N 47°44' W 003°21'0 0.0
2015-May-23 20:34N 47°44' W 003°21'0 0.0
2015-May-23 19:34N 47°44' W 003°21'1 1.5
2015-May-23 18:33N 47°45' W 003°19'0 0.0
2015-May-23 17:33N 47°45' W 003°19'0 0.0
2015-May-23 16:34N 47°45' W 003°19'2 1.6
2015-May-23 15:34N 47°44' W 003°21'4 4.5
2015-May-23 14:33N 47°40' W 003°24'0 0.0
2015-May-23 13:34N 47°40' W 003°24'6 6.2
2015-May-23 12:34N 47°35' W 003°18'7 6.9
2015-May-23 11:33N 47°29' W 003°13'7 7.1
2015-May-23 10:34N 47°24' W 003°06'7 6.7
2015-May-23 09:34N 47°19' W 002°60'7 7.2
2015-May-23 08:32N 47°13' W 002°53'8 7.4
2015-May-23 07:26N 47°07' W 002°45'35 7.2
2015-May-23 02:30N 46°41' W 002°11'7 7.2
2015-May-23 01:32N 46°35' W 002°05'7 7.2
2015-May-23 00:33N 46°29' W 002°00'7 7.2
2015-May-22 23:34N 46°25' W 001°51'5 4.8
2015-May-22 22:33N 46°22' W 001°45'0 0.1
2015-May-22 21:34N 46°22' W 001°45'0 0.2
2015-May-22 20:34N 46°22' W 001°45'0 0.4
2015-May-22 19:33N 46°22' W 001°45'1010.4
2015-May-22 18:33N 46°28' W 001°58'1111.2
2015-May-22 17:33N 46°37' W 002°07'5811.0
2015-May-22 12:17N 47°21' W 003°03'1110.1
2015-May-22 11:15N 47°26' W 003°17'710.6
2015-May-22 10:33N 47°30' W 003°26'1111.0
2015-May-22 09:33N 47°37' W 003°38'28 3.1
2015-May-22 00:33N 47°58' W 004°06'0 0.0
2015-May-21 23:33N 47°58' W 004°06'25 2.5
2015-May-21 13:33N 47°40' W 003°42'9 8.9
2015-May-21 12:33N 47°34' W 003°31'9 9.4
2015-May-21 11:33N 47°28' W 003°21'1210.1
2015-May-21 10:22N 47°22' W 003°05'1 0.1
2015-May-20 23:33N 47°22' W 003°05'13 9.9
2015-May-20 22:16N 47°28' W 003°21'710.3
2015-May-20 21:33N 47°33' W 003°29'1111.1
2015-May-20 20:33N 47°40' W 003°42'1111.0
2015-May-20 19:33N 47°46' W 003°56'1010.2
2015-May-20 18:33N 47°53' W 004°07'6 5.7
2015-May-20 17:33N 47°58' W 004°06'8 2.7
2015-May-20 14:33N 47°50' W 004°06'9 8.7
2015-May-20 13:33N 47°46' W 003°55'10 9.0
2015-May-20 12:28N 47°40' W 003°43'8 8.4
2015-May-20 11:31N 47°35' W 003°34'8 8.3
2015-May-20 10:33N 47°30' W 003°24'14 9.4
2015-May-20 09:04N 47°23' W 003°07'6 0.6
2015-May-19 22:32N 47°20' W 002°59'1210.5
2015-May-19 21:23N 47°26' W 003°15'910.6
2015-May-19 20:33N 47°31' W 003°25'1111.2
2015-May-19 19:33N 47°38' W 003°38'1111.2
2015-May-19 18:33N 47°45' W 003°51'1111.0
2015-May-19 17:33N 47°50' W 004°06'8 1.6
2015-May-19 12:33N 47°58' W 004°06'0 0.0
2015-May-19 02:33N 47°58' W 004°06'0 0.0
2015-May-18 15:33N 47°58' W 004°06'27 6.8
2015-May-18 11:33N 47°38' W 003°39'8 7.8
2015-May-18 10:34N 47°34' W 003°30'8 8.1
2015-May-18 09:33N 47°28' W 003°21'38 9.4
2015-May-18 05:29N 47°09' W 002°32'9 3.7
2015-May-18 03:04N 47°05' W 002°20'0 0.8
2015-May-18 02:32N 47°05' W 002°21'0 0.1
2015-May-18 01:32N 47°05' W 002°21'1 0.8
2015-May-18 00:28N 47°05' W 002°22'1010.8
2015-May-17 23:33N 47°10' W 002°35'2110.6
2015-May-17 21:32N 47°21' W 003°02'1410.0
2015-May-17 20:10N 47°27' W 003°19'610.4
2015-May-17 19:33N 47°31' W 003°27'1110.7
2015-May-17 18:33N 47°38' W 003°39'2210.9
2015-May-17 16:33N 47°50' W 004°06'6 1.9
2015-May-17 13:33N 47°56' W 004°07'22 6.9
2015-May-17 10:19N 47°41' W 003°43'7 9.2
2015-May-17 09:33N 47°36' W 003°35'9 9.2
2015-May-17 08:33N 47°30' W 003°24'42 9.8
2015-May-17 04:16N 47°09' W 002°31'7 9.3
2015-May-17 03:31N 47°05' W 002°22'1 1.1
2015-May-17 02:33N 47°05' W 002°20'0 0.1
2015-May-17 01:29N 47°05' W 002°20'0 0.2
2015-May-17 00:27N 47°05' W 002°21'35 8.9
2015-May-16 20:31N 47°22' W 003°06'1010.3
2015-May-16 19:32N 47°27' W 003°18'1110.8
2015-May-16 18:33N 47°34' W 003°31'1111.0
2015-May-16 17:33N 47°41' W 003°44'1111.0
2015-May-16 16:33N 47°47' W 003°57'8 2.1
2015-May-16 12:33N 47°52' W 004°07'20 9.1
2015-May-16 10:24N 47°41' W 003°43'8 9.0
2015-May-16 09:33N 47°36' W 003°35'9 8.7
2015-May-16 08:33N 47°31' W 003°24'9 8.9
2015-May-16 07:32N 47°25' W 003°13'37 9.1
2015-May-16 03:31N 47°07' W 002°27'5 1.6
2015-May-16 00:30N 47°05' W 002°21'0 0.2
2015-May-15 23:28N 47°05' W 002°20'10 9.0
2015-May-15 22:24N 47°09' W 002°33'2210.8
2015-May-15 20:25N 47°20' W 003°00'1110.2
2015-May-15 19:18N 47°26' W 003°15'810.2
2015-May-15 18:33N 47°30' W 003°24'1010.6
2015-May-15 17:33N 47°37' W 003°36'28 9.4
2015-May-15 14:33N 47°56' W 004°07'  

Dump ship's entire track history